Time;durP1;ratioP1;P1;durP2;ratioP2;P2;SDS_P1;SDS_P2;PMS_P1;PMS_P2;Temp;Humidity;BMP_temperature;BMP_pressure;BME280_temperature;BME280_humidity;BME280_pressure;Samples;Min_cycle;Max_cycle;Signal;HPM_P1;HPM_P2
2022/09/02 00:02:16;;;;;;;3.40;1.95;;;;;;;20.39;50.62;93622.63;4901401;23;20053;-87
2022/09/02 00:04:43;;;;;;;3.10;2.22;;;;;;;20.40;50.45;93634.34;4977437;23;20065;-88
2022/09/02 00:07:10;;;;;;;2.30;2.08;;;;;;;20.40;50.35;93635.09;5059631;23;20033;-88
2022/09/02 00:09:43;;;;;;;2.42;2.22;;;;;;;20.39;50.55;93630.09;4915625;23;20060;-87
2022/09/02 00:12:46;;;;;;;2.50;2.20;;;;;;;20.40;50.47;93634.34;4861858;29;20022;-88
2022/09/02 00:18:01;;;;;;;3.47;2.20;;;;;;;20.40;50.53;93626.09;4938744;23;20069;-88
2022/09/02 00:20:35;;;;;;;2.40;2.00;;;;;;;20.40;50.54;93620.63;5073541;23;20048;-88
2022/09/02 00:23:24;;;;;;;2.30;2.08;;;;;;;20.39;50.54;93616.38;4866053;29;20085;-88
2022/09/02 00:26:16;;;;;;;2.22;1.92;;;;;;;20.39;50.16;93608.88;4912336;23;20084;-88
2022/09/02 00:28:45;;;;;;;3.05;2.03;;;;;;;20.39;50.63;93610.88;5058994;23;20037;-88
2022/09/02 00:31:41;;;;;;;3.70;2.15;;;;;;;20.38;50.50;93604.66;4888909;23;20056;-89
2022/09/02 00:34:27;;;;;;;2.60;2.00;;;;;;;20.40;50.37;93606.88;4870717;23;20049;-88
2022/09/02 00:39:40;;;;;;;3.45;2.08;;;;;;;20.38;50.29;93604.66;5058396;23;20061;-88
2022/09/02 00:42:07;;;;;;;3.28;1.95;;;;;;;20.41;50.19;93608.38;4917136;23;20057;-87
2022/09/02 00:44:53;;;;;;;2.97;1.85;;;;;;;20.39;50.35;93602.66;4974832;23;20042;-88
2022/09/02 00:47:22;;;;;;;3.83;1.98;;;;;;;20.35;50.16;93594.69;4870448;23;20112;-87
2022/09/02 00:50:08;;;;;;;2.38;1.45;;;;;;;20.36;50.59;93589.94;4860322;24;20053;-88
2022/09/02 00:53:13;;;;;;;2.45;2.17;;;;;;;20.38;50.49;93590.19;4865047;29;20029;-87
2022/09/02 00:56:02;;;;;;;1.75;1.55;;;;;;;20.40;50.18;93587.66;4872621;23;21129;-88
2022/09/02 00:58:50;;;;;;;2.10;1.90;;;;;;;20.38;50.29;93593.69;4878049;23;20142;-88
2022/09/02 01:01:30;;;;;;;2.05;1.83;;;;;;;20.36;50.39;93590.66;4884353;29;20044;-88
2022/09/02 01:03:58;;;;;;;4.78;1.98;;;;;;;20.35;50.53;93583.69;4871429;23;20069;-88
2022/09/02 01:06:31;;;;;;;2.30;1.92;;;;;;;20.37;50.19;93592.19;4887156;23;20054;-87
2022/09/02 01:09:07;;;;;;;2.42;1.95;;;;;;;20.36;50.34;93596.16;4865209;23;20025;-87
2022/09/02 01:11:53;;;;;;;2.00;1.77;;;;;;;20.36;50.40;93598.16;4922845;23;20059;-88
2022/09/02 01:16:51;;;;;;;2.08;1.63;;;;;;;20.34;50.55;93603.47;4873044;23;20124;-88
2022/09/02 01:19:41;;;;;;;2.92;1.63;;;;;;;20.34;50.47;93590.47;4895454;23;20050;-88
2022/09/02 01:22:21;;;;;;;3.10;1.75;;;;;;;20.36;50.44;93598.16;4830874;23;20117;-88
2022/09/02 01:25:16;;;;;;;2.70;1.90;;;;;;;20.34;50.40;93590.47;5033713;23;20078;-88
2022/09/02 01:27:43;;;;;;;2.63;1.63;;;;;;;20.31;50.61;93591.50;4893685;23;20060;-88
2022/09/02 01:30:12;;;;;;;2.08;1.70;;;;;;;20.33;50.49;93591.00;4883191;24;20075;-88
2022/09/02 01:32:59;;;;;;;1.92;1.50;;;;;;;20.36;50.43;93595.41;4959074;23;20023;-87
2022/09/02 01:35:25;;;;;;;3.03;1.90;;;;;;;20.36;50.38;93596.16;4910438;23;20083;-89
2022/09/02 01:37:55;;;;;;;1.95;1.50;;;;;;;20.36;50.45;93590.66;4886149;23;20053;-87
2022/09/02 01:40:21;;;;;;;1.67;1.58;;;;;;;20.35;50.42;93583.69;4908473;23;20037;-88
2022/09/02 01:43:16;;;;;;;1.98;1.48;;;;;;;20.37;50.23;93588.69;4961917;23;20060;-88
2022/09/02 01:45:46;;;;;;;1.95;1.30;;;;;;;20.37;50.37;93588.69;4897148;23;20029;-88
2022/09/02 01:48:15;;;;;;;2.35;1.75;;;;;;;20.36;50.25;93585.19;4891454;23;20061;-87
2022/09/02 01:50:48;;;;;;;2.10;1.50;;;;;;;20.37;50.45;93585.94;4909078;23;20108;-87
2022/09/02 01:53:17;;;;;;;2.00;1.30;;;;;;;20.35;50.29;93588.47;4931689;23;20035;-88
2022/09/02 01:55:44;;;;;;;1.58;1.20;;;;;;;20.36;50.21;93589.94;4889476;23;20049;-88
2022/09/02 01:58:19;;;;;;;1.98;1.45;;;;;;;20.35;50.21;93591.94;4852164;29;20061;-88
2022/09/02 02:01:08;;;;;;;2.35;1.70;;;;;;;20.35;50.44;93593.97;4845504;29;20176;-89
2022/09/02 02:03:56;;;;;;;1.80;1.23;;;;;;;20.35;50.37;93585.72;4870486;29;20025;-89
2022/09/02 02:07:01;;;;;;;1.48;1.33;;;;;;;20.34;50.46;93590.47;4930897;23;20041;-88
2022/09/02 02:09:32;;;;;;;2.78;1.52;;;;;;;20.36;50.07;93592.69;4921712;23;20077;-88
2022/09/02 02:12:18;;;;;;;1.48;1.10;;;;;;;20.36;50.31;93582.44;4913600;23;20112;-87
2022/09/02 02:14:44;;;;;;;1.98;1.20;;;;;;;20.36;50.24;93585.19;4867661;29;20052;-88
2022/09/02 02:17:12;;;;;;;2.20;1.40;;;;;;;20.35;50.53;93572.72;4899583;23;20033;-88
2022/09/02 02:19:45;;;;;;;2.13;1.50;;;;;;;20.34;50.38;93576.75;4902898;29;20029;-87
2022/09/02 02:22:19;;;;;;;1.55;1.13;;;;;;;20.34;50.37;93574.00;4907789;23;20029;-87
2022/09/02 02:25:08;;;;;;;1.63;1.50;;;;;;;20.34;50.33;93573.25;4954594;23;20073;-87
2022/09/02 02:27:33;;;;;;;2.00;1.40;;;;;;;20.34;50.57;93573.25;4852059;29;20037;-88
2022/09/02 02:30:06;;;;;;;1.75;1.42;;;;;;;20.34;50.39;93579.50;4918424;23;20059;-87
2022/09/02 02:32:52;;;;;;;2.08;1.02;;;;;;;20.34;50.29;93571.25;4967949;23;20053;-88
2022/09/02 02:35:38;;;;;;;1.40;1.17;;;;;;;20.35;50.28;93569.25;4889511;23;20056;-88
2022/09/02 02:38:07;;;;;;;1.88;1.40;;;;;;;20.34;50.47;93562.28;4939821;23;20049;-87
2022/09/02 02:40:36;;;;;;;1.80;1.33;;;;;;;20.34;50.29;93563.03;4911668;23;20064;-87
2022/09/02 02:43:13;;;;;;;2.05;1.42;;;;;;;20.33;50.38;93564.28;5064260;23;20033;-88
2022/09/02 02:45:57;;;;;;;2.13;1.45;;;;;;;20.34;50.60;93568.50;4866824;29;20049;-88
2022/09/02 02:48:29;;;;;;;2.65;1.77;;;;;;;20.34;50.32;93567.78;4867957;23;20090;-87
2022/09/02 02:50:54;;;;;;;2.53;1.60;;;;;;;20.34;50.33;93563.03;4903266;23;20059;-88
2022/09/02 02:53:20;;;;;;;1.70;1.20;;;;;;;20.35;50.20;93561.03;4961594;23;20052;-87
2022/09/02 02:55:46;;;;;;;1.40;1.25;;;;;;;20.33;50.36;93564.28;4883743;29;20041;-87
2022/09/02 03:01:06;;;;;;;;;;;;;;;20.38;50.13;93557.97;4902976;23;20053;-87
2022/09/02 03:03:43;;;;;;;2.20;1.05;;;;;;;20.35;50.23;93548.00;4870066;29;19959;-88
2022/09/02 03:06:16;;;;;;;1.30;0.98;;;;;;;20.32;50.07;93549.06;4897802;23;20061;-87
2022/09/02 03:08:43;;;;;;;1.90;1.10;;;;;;;20.34;50.40;93548.56;4895322;23;20056;-88
2022/09/02 03:11:08;;;;;;;1.75;1.30;;;;;;;20.33;50.32;93547.81;4892487;23;20071;-88
2022/09/02 03:13:54;;;;;;;1.50;1.25;;;;;;;20.32;50.27;93551.81;4907838;23;20193;-88
2022/09/02 03:16:24;;;;;;;1.98;1.30;;;;;;;20.33;50.14;93553.31;4879608;23;20076;-87
2022/09/02 03:18:54;;;;;;;1.42;1.08;;;;;;;20.33;50.43;93552.56;4925935;23;20117;-89
2022/09/02 03:21:26;;;;;;;0.80;0.80;;;;;;;20.33;50.32;93558.03;4939453;23;20060;-88
2022/09/02 03:24:04;;;;;;;1.30;1.20;;;;;;;20.33;50.22;93552.56;4900622;23;20060;-88
2022/09/02 03:26:30;;;;;;;1.13;1.02;;;;;;;20.33;50.27;93545.06;4855026;23;20041;-87
2022/09/02 03:28:58;;;;;;;1.20;1.00;;;;;;;20.32;50.16;93545.59;4890000;23;20057;-87
2022/09/02 03:31:27;;;;;;;1.33;0.95;;;;;;;20.32;50.43;93556.56;4842324;29;20049;-87
2022/09/02 03:34:34;;;;;;;2.00;1.17;;;;;;;20.33;50.21;93550.56;4868939;29;20040;-88
2022/09/02 03:37:22;;;;;;;1.35;1.00;;;;;;;20.29;50.30;93549.38;4906628;23;20043;-87
2022/09/02 03:40:11;;;;;;;1.40;0.98;;;;;;;20.34;50.25;93554.03;4896203;23;20057;-87
2022/09/02 03:42:45;;;;;;;1.20;1.00;;;;;;;20.33;49.96;93552.56;4878775;23;20045;-88
2022/09/02 03:45:34;;;;;;;1.40;0.90;;;;;;;20.29;50.29;93547.34;4898303;23;20473;-87
2022/09/02 03:47:59;;;;;;;1.45;1.15;;;;;;;20.30;50.13;93545.34;4912934;23;20025;-88
2022/09/02 03:53:34;;;;;;;1.33;1.00;;;;;;;20.31;49.91;93553.06;4971830;23;20035;-88
2022/09/02 03:58:43;;;;;;;1.65;1.08;;;;;;;20.30;50.36;93554.34;4977585;23;20089;-88
2022/09/02 04:01:53;;;;;;;1.30;1.00;;;;;;;20.29;50.24;93555.59;4898625;29;20018;-88
2022/09/02 04:06:44;;;;;;;0.82;0.80;;;;;;;20.27;50.36;93544.38;4923366;23;20029;-88
2022/09/02 04:09:11;;;;;;;1.10;0.98;;;;;;;20.29;50.19;93550.09;4897975;23;20036;-88
2022/09/02 04:11:59;;;;;;;1.77;1.27;;;;;;;20.30;49.95;93546.09;4891447;23;20102;-88
2022/09/02 04:14:36;;;;;;;1.23;1.05;;;;;;;20.31;50.03;93541.34;4875133;23;20037;-88
2022/09/02 04:17:25;;;;;;;1.10;1.00;;;;;;;20.30;50.15;93545.34;4928046;23;20053;-88
2022/09/02 04:19:59;;;;;;;1.27;1.02;;;;;;;20.28;50.24;93542.38;4887434;23;20057;-88
2022/09/02 04:22:28;;;;;;;1.30;1.05;;;;;;;20.29;50.33;93544.63;4877300;29;20037;-87
2022/09/02 04:24:54;;;;;;;1.45;0.70;;;;;;;20.32;50.03;93546.31;4965957;23;20053;-89
2022/09/02 04:27:24;;;;;;;1.25;0.95;;;;;;;20.29;50.20;93541.13;4867859;23;20073;-88
2022/09/02 04:29:52;;;;;;;3.88;1.10;;;;;;;20.34;50.00;93543.81;4859426;29;20038;-94
2022/09/02 04:32:18;;;;;;;1.05;0.80;;;;;;;20.32;49.91;93551.06;4841224;29;20058;-92
2022/09/02 04:34:46;;;;;;;8.40;1.30;;;;;;;20.38;49.97;93549.00;4867389;29;20042;-87
2022/09/02 04:37:13;;;;;;;2.83;1.02;;;;;;;20.35;49.96;93542.50;4842500;29;20340;-88
2022/09/02 04:39:39;;;;;;;2.78;1.80;;;;;;;20.38;49.55;93549.75;4854781;23;20025;-86
2022/09/02 04:42:07;;;;;;;2.67;2.17;;;;;;;20.41;49.32;93547.97;4846834;29;20081;-87
2022/09/02 04:44:38;;;;;;;6.75;4.43;;;;;;;20.43;49.26;93553.69;4871319;23;20041;-87
2022/09/02 04:47:07;;;;;;;6.53;4.22;;;;;;;20.40;49.15;93535.50;4836627;29;20058;-87
2022/09/02 04:49:35;;;;;;;7.57;4.07;;;;;;;20.45;49.00;93548.41;4846161;29;20049;-89
2022/09/02 04:52:01;;;;;;;20.13;11.23;;;;;;;20.22;45.02;93541.72;4850454;29;20037;-90
2022/09/02 04:54:26;;;;;;;14.77;4.55;;;;;;;20.15;46.30;93535.53;4865243;29;20046;-91
2022/09/02 04:56:52;;;;;;;42.47;14.98;;;;;;;20.17;46.51;93541.25;4850527;29;20079;-91
2022/09/02 04:59:20;;;;;;;71.80;27.33;;;;;;;20.19;45.47;93546.97;4812882;29;20061;-89
2022/09/02 05:01:45;;;;;;;68.45;21.88;;;;;;;20.12;44.39;93544.09;4829457;29;20595;-90
2022/09/02 05:04:11;;;;;;;169.57;32.80;;;;;;;20.07;43.95;93539.41;4805368;29;20347;-88
2022/09/02 05:09:07;;;;;;;1497.13;216.77;;;;;;;19.98;43.58;93535.03;4891715;23;20425;-93
2022/09/02 05:11:33;;;;;;;376.63;38.72;;;;;;;19.75;43.63;93547.53;4853739;29;20059;-89
2022/09/02 05:14:20;;;;;;;249.00;34.33;;;;;;;19.55;44.00;93537.03;4842298;23;20053;-88
2022/09/02 05:16:47;;;;;;;293.67;24.40;;;;;;;19.20;44.48;93538.59;4878385;29;20523;-88
2022/09/02 05:19:15;;;;;;;123.93;13.40;;;;;;;19.04;44.79;93536.78;4804498;29;20079;-89
2022/09/02 05:21:43;;;;;;;81.50;10.50;;;;;;;18.96;45.01;93536.59;4824442;29;20045;-88
2022/09/02 05:24:12;;;;;;;137.98;14.77;;;;;;;18.79;45.39;93539.47;4844051;29;20483;-87
2022/09/02 05:26:44;;;;;;;77.40;19.20;;;;;;;18.74;45.91;93536.75;4840698;29;20048;-89
2022/09/02 05:29:11;;;;;;;62.35;8.90;;;;;;;18.51;46.38;93538.88;4825163;23;20049;-90
2022/09/02 05:31:37;;;;;;;37.10;5.53;;;;;;;18.37;46.59;93543.47;4841463;29;20540;-90
2022/09/02 05:34:04;;;;;;;152.57;13.45;;;;;;;18.37;46.51;93537.25;4847420;29;20037;-91
2022/09/02 05:36:31;;;;;;;32.20;4.45;;;;;;;18.23;46.89;93541.03;4873776;29;20093;-88
2022/09/02 05:39:04;;;;;;;17.77;3.60;;;;;;;18.13;47.77;93527.69;4886634;23;20053;-88
2022/09/02 05:41:36;;;;;;;24.77;3.55;;;;;;;18.13;47.59;93535.16;4883821;29;20057;-88
2022/09/02 05:44:09;;;;;;;16.77;3.28;;;;;;;18.12;48.26;93526.19;4882541;29;20481;-87
2022/09/02 05:47:07;;;;;;;18.13;3.55;;;;;;;18.27;47.44;93536.06;4896272;29;20048;-87
2022/09/02 05:49:55;;;;;;;14.40;2.70;;;;;;;18.27;47.12;93536.81;4911616;29;20049;-85
2022/09/02 05:52:21;;;;;;;60.20;9.52;;;;;;;18.34;46.76;93530.06;4923672;23;20040;-87
2022/09/02 05:54:48;;;;;;;171.52;22.05;;;;;;;18.38;47.00;93534.00;4888367;23;20113;-86
2022/09/02 05:57:15;;;;;;;52.35;6.13;;;;;;;18.42;47.13;93528.97;4878010;29;20041;-86
2022/09/02 05:59:41;;;;;;;56.20;7.10;;;;;;;18.23;47.21;93539.06;4886874;23;20037;-87
2022/09/02 06:02:09;;;;;;;13.82;3.85;;;;;;;18.21;47.92;93527.88;4859610;29;20077;-88
2022/09/02 06:04:45;;;;;;;22.25;4.90;;;;;;;18.23;47.72;93530.84;4873807;23;20045;-86
2022/09/02 06:07:11;;;;;;;14.98;4.55;;;;;;;18.17;48.34;93530.16;4873004;29;20021;-87
2022/09/02 06:09:39;;;;;;;12.88;2.80;;;;;;;18.16;48.37;93536.88;4859326;29;20583;-90
2022/09/02 06:12:05;;;;;;;30.38;10.57;;;;;;;18.17;47.80;93532.16;4901029;23;20057;-88
2022/09/02 06:14:52;;;;;;;34.40;14.95;;;;;;;18.26;48.68;93535.31;4860318;29;20053;-85
2022/09/02 06:17:18;;;;;;;217.13;164.45;;;;;;;18.41;48.08;93527.50;4873589;29;20041;-87
2022/09/02 06:19:43;;;;;;;201.45;122.97;;;;;;;18.63;48.21;93536.84;4868753;29;20032;-90
2022/09/02 06:22:09;;;;;;;60.10;22.73;;;;;;;18.77;47.35;93525.53;4862398;29;20074;-92
2022/09/02 06:24:34;;;;;;;55.85;28.23;;;;;;;18.91;47.31;93529.16;4873409;29;20074;-89
2022/09/02 06:27:00;;;;;;;46.45;19.50;;;;;;;19.03;46.88;93524.31;4859159;29;20021;-92
2022/09/02 06:29:34;;;;;;;45.85;18.55;;;;;;;19.20;46.69;93526.91;4865013;29;20044;-88
2022/09/02 06:32:03;;;;;;;39.67;15.63;;;;;;;19.22;46.50;93527.13;4892213;23;20048;-86
2022/09/02 06:34:28;;;;;;;43.50;18.65;;;;;;;19.27;46.05;93524.31;4913343;23;20045;-87
2022/09/02 06:36:54;;;;;;;117.40;57.10;;;;;;;19.35;46.05;93525.25;4885351;23;20064;-87
2022/09/02 06:41:47;;;;;;;93.70;43.40;;;;;;;19.46;45.77;93524.41;4920878;23;20170;-88
2022/09/02 06:44:14;;;;;;;134.48;59.35;;;;;;;19.47;45.78;93525.88;4876903;23;20119;-86
2022/09/02 06:46:54;;;;;;;133.18;55.85;;;;;;;19.49;45.68;93526.81;4877383;23;20046;-87
2022/09/02 06:51:45;;;;;;;124.80;47.53;;;;;;;19.55;45.60;93529.53;4900690;23;20104;-86
2022/09/02 06:54:13;;;;;;;133.00;51.58;;;;;;;19.61;45.43;93527.50;4867594;23;20147;-87
2022/09/02 06:56:46;;;;;;;140.23;51.25;;;;;;;19.61;45.24;93527.50;4875738;29;20105;-88
2022/09/02 06:59:11;;;;;;;140.05;60.15;;;;;;;19.66;45.63;93534.19;4893427;23;20066;-87
2022/09/02 07:01:37;;;;;;;139.32;65.18;;;;;;;19.59;45.29;93532.00;4874688;29;20056;-87
2022/09/02 07:06:48;;;;;;;110.93;53.90;;;;;;;19.57;45.62;93526.28;4881807;29;20053;-87
2022/09/02 07:09:17;;;;;;;104.05;50.95;;;;;;;19.69;45.23;93527.66;4892721;23;20049;-86
2022/09/02 07:11:46;;;;;;;108.50;51.30;;;;;;;19.66;45.18;93518.47;4849165;29;20040;-86
2022/09/02 07:14:13;;;;;;;140.88;74.97;;;;;;;19.75;45.26;93526.31;4858620;23;20052;-90
2022/09/02 07:16:47;;;;;;;241.40;131.77;;;;;;;19.79;45.18;93517.81;4906275;23;20044;-86
2022/09/02 07:19:13;;;;;;;173.82;89.20;;;;;;;19.75;45.11;93525.56;4902241;23;20057;-86
2022/09/02 07:21:39;;;;;;;168.85;90.85;;;;;;;19.79;45.36;93515.81;4892100;23;20390;-86
2022/09/02 07:24:07;;;;;;;156.20;85.60;;;;;;;19.80;45.23;93511.81;4877144;29;20033;-86
2022/09/02 07:26:32;;;;;;;148.82;77.93;;;;;;;19.83;44.98;93524.50;4870654;29;20112;-92
2022/09/02 07:28:59;;;;;;;129.10;71.15;;;;;;;19.84;44.99;93517.75;4868120;29;20033;-86
2022/09/02 07:31:26;;;;;;;135.18;73.68;;;;;;;19.82;45.28;93517.53;4882304;29;20040;-86
2022/09/02 07:33:52;;;;;;;141.98;77.55;;;;;;;19.81;45.28;93516.03;4875742;29;20049;-91
2022/09/02 07:36:20;;;;;;;137.80;71.65;;;;;;;19.90;45.29;93511.47;4848483;29;20055;-87
2022/09/02 07:38:45;;;;;;;140.23;70.47;;;;;;;19.90;45.52;93519.69;4874899;29;20128;-88
2022/09/02 07:41:11;;;;;;;147.20;82.20;;;;;;;19.91;45.21;93515.69;4835633;29;20544;-88
2022/09/02 07:43:37;;;;;;;139.02;74.85;;;;;;;19.84;44.91;93512.25;4872877;29;20049;-86
2022/09/02 07:46:03;;;;;;;186.15;93.63;;;;;;;19.92;44.92;93511.69;4883015;29;20040;-88
2022/09/02 07:48:29;;;;;;;114.15;61.65;;;;;;;19.88;45.39;93517.47;4882767;29;20534;-88
2022/09/02 07:50:54;;;;;;;109.25;54.97;;;;;;;19.89;45.23;93513.44;4886726;29;20045;-91
2022/09/02 07:53:21;;;;;;;83.18;43.97;;;;;;;19.83;45.26;93523.75;4889398;29;20052;-89
2022/09/02 07:55:46;;;;;;;92.18;45.58;;;;;;;19.79;45.14;93515.81;4863781;29;20079;-94
2022/09/02 07:58:13;;;;;;;69.15;33.03;;;;;;;19.85;44.58;93511.00;4861160;29;20053;-93
2022/09/02 08:00:38;;;;;;;45.55;21.85;;;;;;;19.78;44.50;93508.84;4866124;29;20084;-92
2022/09/02 08:03:04;;;;;;;50.10;25.40;;;;;;;19.80;44.35;93509.06;4856720;29;20053;-90
2022/09/02 08:05:30;;;;;;;46.33;23.95;;;;;;;19.69;44.50;93511.94;4866236;29;20037;-94
2022/09/02 08:07:56;;;;;;;55.78;29.02;;;;;;;19.71;44.61;93514.16;4866161;29;20040;-89
2022/09/02 08:10:27;;;;;;;60.33;31.30;;;;;;;19.75;44.37;93517.34;4852796;29;20049;-88
2022/09/02 08:12:53;;;;;;;68.00;28.63;;;;;;;19.73;44.06;93515.13;4874785;29;20061;-86
2022/09/02 08:15:19;;;;;;;93.88;30.67;;;;;;;19.67;44.23;93511.72;4869089;29;20101;-88
2022/09/02 08:17:58;;;;;;;127.70;30.45;;;;;;;19.58;44.22;93519.56;4869456;29;20040;-87
2022/09/02 08:20:25;;;;;;;127.75;27.30;;;;;;;19.59;43.57;93518.28;4859044;29;20040;-89
2022/09/02 08:23:13;;;;;;;113.28;23.83;;;;;;;19.59;43.89;93516.28;4842167;29;20037;-91
2022/09/02 08:25:39;;;;;;;144.90;27.15;;;;;;;19.58;43.45;93520.28;4801769;29;20046;-87
2022/09/02 08:28:05;;;;;;;120.85;27.48;;;;;;;19.60;42.84;93508.81;4818123;29;20096;-87
2022/09/02 08:30:32;;;;;;;100.85;23.90;;;;;;;19.52;42.35;93514.88;4840800;23;20057;-89
2022/09/02 08:33:00;;;;;;;88.05;20.17;;;;;;;19.50;42.09;93509.16;4890045;29;20116;-89
2022/09/02 08:37:51;;;;;;;130.57;30.83;;;;;;;19.49;41.92;93512.38;4883576;23;20529;-95
2022/09/02 08:40:19;;;;;;;158.18;46.03;;;;;;;19.39;42.25;93503.03;4861862;29;20131;-88
2022/09/02 08:42:53;;;;;;;117.60;42.05;;;;;;;19.55;42.13;93515.09;4871127;29;20041;-90
2022/09/02 08:45:38;;;;;;;125.18;45.17;;;;;;;19.52;42.18;93512.13;4844033;29;20508;-91
2022/09/02 08:48:20;;;;;;;109.50;45.58;;;;;;;19.42;42.41;93519.19;4992645;23;20048;-88
2022/09/02 08:50:49;;;;;;;137.70;54.42;;;;;;;19.43;42.32;93509.72;4888303;29;20056;-94
2022/09/02 08:53:24;;;;;;;120.88;52.00;;;;;;;19.47;42.11;93509.44;4836217;29;20038;-92
2022/09/02 08:55:54;;;;;;;134.40;51.55;;;;;;;19.53;42.30;93510.13;4866878;29;20044;-88
2022/09/02 08:58:22;;;;;;;132.15;47.65;;;;;;;19.64;42.18;93498.31;4882941;23;20078;-89
2022/09/02 09:00:55;;;;;;;122.97;45.13;;;;;;;19.65;42.12;93503.28;4867983;29;20044;-91
2022/09/02 09:03:28;;;;;;;114.03;40.47;;;;;;;19.73;41.95;93495.91;4882163;29;20080;-89
2022/09/02 09:06:06;;;;;;;104.70;39.35;;;;;;;19.73;42.29;93506.16;4855814;29;20038;-86
2022/09/02 09:09:02;;;;;;;100.95;36.72;;;;;;;19.77;42.17;93501.13;4832073;29;20061;-89
2022/09/02 09:11:38;;;;;;;86.75;32.75;;;;;;;19.81;41.87;93494.09;4819389;29;20076;-86
2022/09/02 09:14:51;;;;;;;75.38;32.17;;;;;;;19.87;42.44;93505.00;4800317;29;20707;-94
2022/09/02 09:17:43;;;;;;;67.53;30.67;;;;;;;19.89;42.32;93499.75;4803509;29;20046;-89
2022/09/02 09:20:19;;;;;;;65.53;27.58;;;;;;;19.90;41.99;93500.47;4881801;24;20045;-88
2022/09/02 09:22:47;;;;;;;61.08;26.42;;;;;;;19.91;42.06;93485.50;4894264;29;20073;-90
2022/09/02 09:25:15;;;;;;;51.00;23.25;;;;;;;19.91;41.53;93489.00;4866923;23;20046;-88
2022/09/02 09:27:50;;;;;;;56.15;22.77;;;;;;;19.93;41.79;93485.69;4861297;29;20185;-87
2022/09/02 09:30:15;;;;;;;57.63;23.40;;;;;;;19.93;41.60;93474.72;4821907;29;20747;-87
2022/09/02 09:32:49;;;;;;;52.47;21.10;;;;;;;19.95;41.48;93483.94;4851765;29;20101;-90
2022/09/02 09:35:22;;;;;;;52.30;23.42;;;;;;;19.96;41.65;93479.19;4856258;29;20034;-88
2022/09/02 09:37:51;;;;;;;52.13;24.75;;;;;;;20.00;41.62;93476.88;4873322;29;20034;-88
2022/09/02 09:42:44;;;;;;;69.57;32.42;;;;;;;20.03;41.62;93478.59;4898283;23;20041;-88
2022/09/02 09:45:42;;;;;;;84.75;39.58;;;;;;;20.05;41.76;93462.34;4872660;29;20045;-87
2022/09/02 09:48:17;;;;;;;95.95;40.53;;;;;;;20.06;41.67;93469.31;4842544;29;20034;-91
2022/09/02 09:50:46;;;;;;;101.28;39.40;;;;;;;20.09;41.59;93482.00;4866825;29;20663;-91
2022/09/02 09:53:21;;;;;;;111.53;37.40;;;;;;;20.05;41.75;93476.81;4837549;29;20108;-89
2022/09/02 09:55:53;;;;;;;119.47;34.60;;;;;;;20.11;41.40;93472.00;4853819;29;20074;-88
2022/09/02 09:58:38;;;;;;;99.72;32.22;;;;;;;20.09;41.71;93474.53;4927084;23;20059;-90
2022/09/02 10:01:13;;;;;;;77.03;29.50;;;;;;;20.10;41.80;93469.78;4919129;23;20061;-92
2022/09/02 10:03:51;;;;;;;84.35;29.50;;;;;;;20.11;41.57;93454.78;4862113;29;20075;-87
2022/09/02 10:06:29;;;;;;;63.65;24.65;;;;;;;20.11;41.34;93466.50;4874044;29;20109;-92
2022/09/02 10:09:01;;;;;;;57.22;24.13;;;;;;;20.14;40.81;93450.97;4857408;29;20046;-87
2022/09/02 10:11:35;;;;;;;57.75;20.48;;;;;;;20.10;40.97;93469.78;4841673;23;20045;-89
2022/09/02 10:14:05;;;;;;;50.45;21.60;;;;;;;20.12;41.83;93443.28;4866402;29;20044;-93
2022/09/02 10:16:57;;;;;;;50.70;20.70;;;;;;;20.14;41.35;93454.47;4857469;29;20378;-91
2022/09/02 10:19:35;;;;;;;36.17;19.08;;;;;;;20.17;41.47;93452.69;4849364;29;20026;-89
2022/09/02 10:22:29;;;;;;;53.42;16.80;;;;;;;20.15;40.94;93444.97;4858361;29;20041;-94
2022/09/02 10:25:20;;;;;;;40.50;19.42;;;;;;;20.13;40.92;93436.53;4858160;29;20045;-90
2022/09/02 10:27:52;;;;;;;48.70;20.23;;;;;;;20.13;41.06;93447.53;4850446;29;20053;-91
2022/09/02 10:30:23;;;;;;;42.80;19.35;;;;;;;20.15;40.93;93450.47;4845876;29;20050;-93
2022/09/02 10:33:38;;;;;;;59.60;23.15;;;;;;;20.18;40.98;93443.19;4843244;29;20048;-89
2022/09/02 10:36:27;;;;;;;50.60;23.45;;;;;;;20.19;41.04;93452.91;4880506;29;20045;-89
2022/09/02 10:39:13;;;;;;;48.47;21.75;;;;;;;20.22;40.96;93442.91;4879299;29;20021;-92
2022/09/02 10:41:44;;;;;;;77.97;22.40;;;;;;;20.23;40.62;93436.88;4865288;29;20054;-89
2022/09/02 10:44:29;;;;;;;98.88;24.00;;;;;;;20.24;40.99;93443.84;4840677;29;20034;-93
2022/09/02 10:47:17;;;;;;;71.28;20.92;;;;;;;20.23;41.22;93438.88;4865519;23;20063;-89
2022/09/02 10:49:52;;;;;;;79.47;20.90;;;;;;;20.27;40.64;93428.34;4886931;29;20066;-91
2022/09/02 10:52:40;;;;;;;78.93;20.83;;;;;;;20.27;40.86;93431.09;4860614;29;20042;-92
2022/09/02 10:55:16;;;;;;;76.55;21.35;;;;;;;20.28;40.45;93436.06;4841994;29;20042;-91
2022/09/02 10:57:48;;;;;;;83.60;21.98;;;;;;;20.28;40.62;93430.56;4843374;29;20030;-90
2022/09/02 11:00:15;;;;;;;78.00;20.10;;;;;;;20.23;40.52;93425.16;4813283;29;20030;-89
2022/09/02 11:02:46;;;;;;;64.82;18.92;;;;;;;20.23;40.77;93420.41;4814689;29;20128;-90
2022/09/02 11:05:15;;;;;;;80.55;20.95;;;;;;;20.25;40.75;93425.38;4879619;23;20496;-95
2022/09/02 11:07:50;;;;;;;91.25;23.30;;;;;;;20.24;40.20;93432.13;4831442;29;20037;-92
2022/09/02 11:10:22;;;;;;;67.90;20.48;;;;;;;20.26;40.23;93421.38;4832488;29;20124;-91
2022/09/02 11:12:51;;;;;;;81.95;22.02;;;;;;;20.27;40.25;93415.38;4881321;29;20056;-92
2022/09/02 11:15:20;;;;;;;72.65;21.67;;;;;;;20.30;39.96;93419.06;4848514;29;20536;-94
2022/09/02 11:18:02;;;;;;;67.30;18.63;;;;;;;20.30;40.17;93421.81;4836807;29;20041;-94
2022/09/02 11:20:42;;;;;;;64.97;17.55;;;;;;;20.31;40.42;93415.81;4859832;29;20048;-94
2022/09/02 11:23:45;;;;;;;62.70;19.07;;;;;;;20.27;40.63;93422.84;4859243;29;20116;-89
2022/09/02 11:26:15;;;;;;;56.78;17.90;;;;;;;20.34;40.50;93414.03;4875560;29;20064;-89
2022/09/02 11:29:09;;;;;;;64.78;16.92;;;;;;;20.33;40.51;93413.28;4845518;29;20085;-91
2022/09/02 11:31:40;;;;;;;69.88;24.60;;;;;;;20.33;40.45;93418.78;4840794;29;20053;-92
2022/09/02 11:34:34;;;;;;;51.00;18.20;;;;;;;20.35;40.83;93421.00;4856608;29;20065;-91
2022/09/02 11:37:07;;;;;;;66.57;25.45;;;;;;;20.32;40.88;93411.78;4856364;29;20077;-91
2022/09/02 11:39:52;;;;;;;73.75;29.85;;;;;;;20.34;40.72;93398.28;4841285;29;20065;-93
2022/09/02 11:42:31;;;;;;;71.50;27.88;;;;;;;20.32;41.09;93414.53;4843453;29;20696;-92
2022/09/02 11:45:22;;;;;;;103.57;38.33;;;;;;;20.33;41.08;93412.53;4860484;29;20041;-89
2022/09/02 11:48:03;;;;;;;125.15;37.40;;;;;;;20.32;41.05;93409.06;4843409;29;20041;-91
2022/09/02 11:50:41;;;;;;;89.43;36.92;;;;;;;20.34;41.20;93409.28;4874800;29;20041;-94
2022/09/02 11:53:12;;;;;;;106.57;37.40;;;;;;;20.34;41.21;93411.28;4874442;29;20037;-92
2022/09/02 11:55:42;;;;;;;96.97;38.90;;;;;;;20.35;41.39;93407.97;4874931;29;20037;-94
2022/09/02 11:58:07;;;;;;;112.63;50.30;;;;;;;20.34;41.27;93405.78;4840720;29;20071;-91
2022/09/02 12:00:35;;;;;;;87.03;45.35;;;;;;;20.33;41.42;93402.31;4842999;29;20051;-89
2022/09/02 12:03:03;;;;;;;104.45;49.60;;;;;;;20.34;41.44;93403.78;4844982;29;20093;-92
2022/09/02 12:05:29;;;;;;;107.00;53.25;;;;;;;20.38;41.31;93408.97;4862427;29;20501;-89
2022/09/02 12:07:55;;;;;;;96.35;51.03;;;;;;;20.35;41.29;93399.75;4861880;29;20045;-92
2022/09/02 12:10:42;;;;;;;120.22;60.40;;;;;;;20.36;41.73;93397.75;4846533;29;20128;-88
2022/09/02 12:13:33;;;;;;;138.10;61.47;;;;;;;20.39;41.62;93399.47;4861649;29;20101;-88
2022/09/02 12:16:28;;;;;;;113.90;56.17;;;;;;;20.39;41.84;93399.47;4847875;29;20045;-93
2022/09/02 12:18:53;;;;;;;102.15;51.05;;;;;;;20.40;41.66;93387.97;4779434;29;20051;-89
2022/09/02 12:21:25;;;;;;;112.82;52.53;;;;;;;20.37;41.59;93397.25;4802916;29;20042;-88
2022/09/02 12:23:52;;;;;;;105.10;51.95;;;;;;;20.40;41.77;93382.47;4790133;29;20054;-90
2022/09/02 12:26:20;;;;;;;104.30;51.35;;;;;;;20.39;42.02;93383.75;4805534;29;20411;-91
2022/09/02 12:28:47;;;;;;;98.93;45.33;;;;;;;20.42;41.76;93381.94;4788975;29;20043;-90